Terminal Aerodrome Forecast
Issued by NWS

Home | Current Version | Previous Version | Text Only | Print | Product List | Glossary On
Versions: 1 2 3 4 5 6 7 8 9 10 11 12
000
FTUS42 KTBW 012334
TAFPGD
TAF
KPGD 012334Z 0200/0224 VRB04KT P6SM VCTS SCT050CB BKN150
     FM020200 11005KT P6SM VCTS SCT035CB SCT150 BKN250
     FM020300 08004KT P6SM FEW150 SCT250
     FM021500 23005KT P6SM SCT030 SCT250
     FM021800 27007KT P6SM VCTS SCT050CB BKN250=

USA.gov is the U.S. government's official web portal to all federal, state and local government web resources and services.